sensor_id;sensor_type;location;lat;lon;timestamp;P1;durP1;ratioP1;P2;durP2;ratioP2
33327;SDS011;19692;52.998;9.116;2023-08-17T00:00:02;6.40;;;3.23;;
33327;SDS011;19692;52.998;9.116;2023-08-17T00:02:29;7.67;;;2.87;;
33327;SDS011;19692;52.998;9.116;2023-08-17T00:04:56;8.43;;;3.57;;
33327;SDS011;19692;52.998;9.116;2023-08-17T00:07:21;5.40;;;2.77;;
33327;SDS011;19692;52.998;9.116;2023-08-17T00:09:47;10.33;;;4.03;;
33327;SDS011;19692;52.998;9.116;2023-08-17T00:12:13;4.87;;;3.07;;
33327;SDS011;19692;52.998;9.116;2023-08-17T00:14:39;4.47;;;3.23;;
33327;SDS011;19692;52.998;9.116;2023-08-17T00:17:04;4.27;;;3.33;;
33327;SDS011;19692;52.998;9.116;2023-08-17T00:19:30;3.87;;;2.97;;
33327;SDS011;19692;52.998;9.116;2023-08-17T00:21:56;5.53;;;2.90;;
33327;SDS011;19692;52.998;9.116;2023-08-17T00:24:22;5.80;;;2.90;;
33327;SDS011;19692;52.998;9.116;2023-08-17T00:26:48;4.23;;;3.20;;
33327;SDS011;19692;52.998;9.116;2023-08-17T00:29:14;4.07;;;2.70;;
33327;SDS011;19692;52.998;9.116;2023-08-17T00:31:40;5.27;;;3.13;;
33327;SDS011;19692;52.998;9.116;2023-08-17T00:34:06;6.33;;;2.73;;
33327;SDS011;19692;52.998;9.116;2023-08-17T00:36:32;4.97;;;2.80;;
33327;SDS011;19692;52.998;9.116;2023-08-17T00:38:58;5.43;;;3.30;;
33327;SDS011;19692;52.998;9.116;2023-08-17T00:41:24;7.70;;;3.50;;
33327;SDS011;19692;52.998;9.116;2023-08-17T00:43:50;4.27;;;3.40;;
33327;SDS011;19692;52.998;9.116;2023-08-17T00:46:15;4.50;;;3.10;;
33327;SDS011;19692;52.998;9.116;2023-08-17T00:48:42;9.00;;;3.63;;
33327;SDS011;19692;52.998;9.116;2023-08-17T00:51:08;9.37;;;4.03;;
33327;SDS011;19692;52.998;9.116;2023-08-17T00:53:34;4.93;;;3.30;;
33327;SDS011;19692;52.998;9.116;2023-08-17T00:56:00;5.77;;;3.20;;
33327;SDS011;19692;52.998;9.116;2023-08-17T00:58:27;8.77;;;3.47;;
33327;SDS011;19692;52.998;9.116;2023-08-17T01:00:53;7.60;;;3.10;;
33327;SDS011;19692;52.998;9.116;2023-08-17T01:03:20;5.73;;;3.10;;
33327;SDS011;19692;52.998;9.116;2023-08-17T01:05:48;5.37;;;3.30;;
33327;SDS011;19692;52.998;9.116;2023-08-17T01:08:14;5.97;;;3.30;;
33327;SDS011;19692;52.998;9.116;2023-08-17T01:13:44;6.97;;;3.57;;
33327;SDS011;19692;52.998;9.116;2023-08-17T01:16:39;3.83;;;2.93;;
33327;SDS011;19692;52.998;9.116;2023-08-17T01:19:12;5.00;;;3.20;;
33327;SDS011;19692;52.998;9.116;2023-08-17T01:21:49;5.53;;;3.20;;
33327;SDS011;19692;52.998;9.116;2023-08-17T01:24:15;4.23;;;3.27;;
33327;SDS011;19692;52.998;9.116;2023-08-17T01:26:41;7.07;;;3.80;;
33327;SDS011;19692;52.998;9.116;2023-08-17T01:29:07;6.57;;;3.30;;
33327;SDS011;19692;52.998;9.116;2023-08-17T01:31:36;5.33;;;3.17;;
33327;SDS011;19692;52.998;9.116;2023-08-17T01:34:16;6.50;;;3.33;;
33327;SDS011;19692;52.998;9.116;2023-08-17T01:36:50;5.80;;;3.50;;
33327;SDS011;19692;52.998;9.116;2023-08-17T01:39:24;7.50;;;3.43;;
33327;SDS011;19692;52.998;9.116;2023-08-17T01:41:57;4.67;;;3.27;;
33327;SDS011;19692;52.998;9.116;2023-08-17T01:44:25;4.30;;;3.20;;
33327;SDS011;19692;52.998;9.116;2023-08-17T01:46:52;6.00;;;3.30;;
33327;SDS011;19692;52.998;9.116;2023-08-17T01:49:18;5.27;;;3.37;;
33327;SDS011;19692;52.998;9.116;2023-08-17T01:51:44;6.23;;;3.50;;
33327;SDS011;19692;52.998;9.116;2023-08-17T01:54:10;6.53;;;3.70;;
33327;SDS011;19692;52.998;9.116;2023-08-17T01:56:35;6.17;;;3.47;;
33327;SDS011;19692;52.998;9.116;2023-08-17T01:59:01;6.10;;;3.50;;
33327;SDS011;19692;52.998;9.116;2023-08-17T02:01:27;4.57;;;3.57;;
33327;SDS011;19692;52.998;9.116;2023-08-17T02:03:53;6.93;;;3.80;;
33327;SDS011;19692;52.998;9.116;2023-08-17T02:06:19;5.23;;;3.50;;
33327;SDS011;19692;52.998;9.116;2023-08-17T02:08:45;6.10;;;3.40;;
33327;SDS011;19692;52.998;9.116;2023-08-17T02:11:11;7.17;;;3.57;;
33327;SDS011;19692;52.998;9.116;2023-08-17T02:13:36;7.00;;;4.30;;
33327;SDS011;19692;52.998;9.116;2023-08-17T02:16:03;6.90;;;3.63;;
33327;SDS011;19692;52.998;9.116;2023-08-17T02:18:29;3.83;;;3.33;;
33327;SDS011;19692;52.998;9.116;2023-08-17T02:20:57;6.63;;;3.80;;
33327;SDS011;19692;52.998;9.116;2023-08-17T02:23:22;6.67;;;3.23;;
33327;SDS011;19692;52.998;9.116;2023-08-17T02:25:48;7.23;;;3.60;;
33327;SDS011;19692;52.998;9.116;2023-08-17T02:28:14;6.20;;;3.27;;
33327;SDS011;19692;52.998;9.116;2023-08-17T02:30:40;8.63;;;3.63;;
33327;SDS011;19692;52.998;9.116;2023-08-17T02:33:06;7.20;;;3.50;;
33327;SDS011;19692;52.998;9.116;2023-08-17T02:35:32;6.13;;;3.20;;
33327;SDS011;19692;52.998;9.116;2023-08-17T02:37:58;6.53;;;3.40;;
33327;SDS011;19692;52.998;9.116;2023-08-17T02:40:24;5.67;;;3.50;;
33327;SDS011;19692;52.998;9.116;2023-08-17T02:42:49;5.10;;;3.30;;
33327;SDS011;19692;52.998;9.116;2023-08-17T02:45:15;5.27;;;3.63;;
33327;SDS011;19692;52.998;9.116;2023-08-17T02:47:41;7.83;;;3.60;;
33327;SDS011;19692;52.998;9.116;2023-08-17T02:50:07;6.17;;;3.70;;
33327;SDS011;19692;52.998;9.116;2023-08-17T02:52:33;7.30;;;3.77;;
33327;SDS011;19692;52.998;9.116;2023-08-17T02:54:59;7.47;;;3.80;;
33327;SDS011;19692;52.998;9.116;2023-08-17T02:57:25;5.93;;;3.17;;
33327;SDS011;19692;52.998;9.116;2023-08-17T02:59:50;7.07;;;3.90;;
33327;SDS011;19692;52.998;9.116;2023-08-17T03:02:16;6.67;;;3.40;;
33327;SDS011;19692;52.998;9.116;2023-08-17T03:04:42;9.53;;;3.73;;
33327;SDS011;19692;52.998;9.116;2023-08-17T03:07:08;6.17;;;3.50;;
33327;SDS011;19692;52.998;9.116;2023-08-17T03:09:33;5.43;;;3.30;;
33327;SDS011;19692;52.998;9.116;2023-08-17T03:11:59;5.13;;;3.33;;
33327;SDS011;19692;52.998;9.116;2023-08-17T03:14:25;8.40;;;3.50;;
33327;SDS011;19692;52.998;9.116;2023-08-17T03:16:51;4.20;;;3.37;;
33327;SDS011;19692;52.998;9.116;2023-08-17T03:19:16;7.17;;;3.93;;
33327;SDS011;19692;52.998;9.116;2023-08-17T03:21:42;6.83;;;3.50;;
33327;SDS011;19692;52.998;9.116;2023-08-17T03:24:08;9.80;;;3.30;;
33327;SDS011;19692;52.998;9.116;2023-08-17T03:26:34;6.73;;;3.90;;
33327;SDS011;19692;52.998;9.116;2023-08-17T03:29:00;5.37;;;3.50;;
33327;SDS011;19692;52.998;9.116;2023-08-17T03:31:25;8.20;;;3.80;;
33327;SDS011;19692;52.998;9.116;2023-08-17T03:33:51;6.87;;;4.20;;
33327;SDS011;19692;52.998;9.116;2023-08-17T03:36:17;7.57;;;3.77;;
33327;SDS011;19692;52.998;9.116;2023-08-17T03:38:42;5.70;;;4.27;;
33327;SDS011;19692;52.998;9.116;2023-08-17T03:41:08;7.20;;;5.00;;
33327;SDS011;19692;52.998;9.116;2023-08-17T03:43:35;6.70;;;4.03;;
33327;SDS011;19692;52.998;9.116;2023-08-17T03:46:01;7.77;;;4.00;;
33327;SDS011;19692;52.998;9.116;2023-08-17T03:48:29;7.33;;;3.80;;
33327;SDS011;19692;52.998;9.116;2023-08-17T03:50:55;7.23;;;4.03;;
33327;SDS011;19692;52.998;9.116;2023-08-17T03:53:21;4.87;;;3.70;;
33327;SDS011;19692;52.998;9.116;2023-08-17T03:55:47;7.47;;;4.10;;
33327;SDS011;19692;52.998;9.116;2023-08-17T03:58:13;7.73;;;3.67;;
33327;SDS011;19692;52.998;9.116;2023-08-17T04:00:40;7.67;;;3.83;;
33327;SDS011;19692;52.998;9.116;2023-08-17T04:03:06;6.10;;;3.80;;
33327;SDS011;19692;52.998;9.116;2023-08-17T04:05:32;5.37;;;3.73;;
33327;SDS011;19692;52.998;9.116;2023-08-17T04:07:58;5.73;;;3.60;;
33327;SDS011;19692;52.998;9.116;2023-08-17T04:10:29;6.33;;;3.60;;
33327;SDS011;19692;52.998;9.116;2023-08-17T04:12:55;6.50;;;4.20;;
33327;SDS011;19692;52.998;9.116;2023-08-17T04:15:21;8.60;;;3.53;;
33327;SDS011;19692;52.998;9.116;2023-08-17T04:17:47;8.40;;;3.57;;
33327;SDS011;19692;52.998;9.116;2023-08-17T04:20:13;6.53;;;3.53;;
33327;SDS011;19692;52.998;9.116;2023-08-17T04:22:39;7.20;;;3.50;;
33327;SDS011;19692;52.998;9.116;2023-08-17T04:25:05;5.13;;;3.23;;
33327;SDS011;19692;52.998;9.116;2023-08-17T04:27:32;6.33;;;3.50;;
33327;SDS011;19692;52.998;9.116;2023-08-17T04:29:58;6.37;;;3.17;;
33327;SDS011;19692;52.998;9.116;2023-08-17T04:32:25;8.87;;;3.73;;
33327;SDS011;19692;52.998;9.116;2023-08-17T04:34:51;5.40;;;3.67;;
33327;SDS011;19692;52.998;9.116;2023-08-17T04:37:17;7.83;;;3.67;;
33327;SDS011;19692;52.998;9.116;2023-08-17T04:39:42;6.73;;;3.70;;
33327;SDS011;19692;52.998;9.116;2023-08-17T04:42:08;7.60;;;3.60;;
33327;SDS011;19692;52.998;9.116;2023-08-17T04:44:35;7.77;;;3.67;;
33327;SDS011;19692;52.998;9.116;2023-08-17T04:47:00;8.33;;;3.90;;
33327;SDS011;19692;52.998;9.116;2023-08-17T04:49:27;8.00;;;3.70;;
33327;SDS011;19692;52.998;9.116;2023-08-17T04:51:53;8.53;;;4.23;;
33327;SDS011;19692;52.998;9.116;2023-08-17T04:54:18;6.90;;;3.67;;
33327;SDS011;19692;52.998;9.116;2023-08-17T04:56:44;7.00;;;3.70;;
33327;SDS011;19692;52.998;9.116;2023-08-17T04:59:10;8.57;;;3.57;;
33327;SDS011;19692;52.998;9.116;2023-08-17T05:01:36;5.67;;;3.90;;
33327;SDS011;19692;52.998;9.116;2023-08-17T05:04:02;6.23;;;3.67;;
33327;SDS011;19692;52.998;9.116;2023-08-17T05:06:29;9.10;;;3.53;;
33327;SDS011;19692;52.998;9.116;2023-08-17T05:08:55;6.70;;;3.83;;
33327;SDS011;19692;52.998;9.116;2023-08-17T05:11:22;8.67;;;3.70;;
33327;SDS011;19692;52.998;9.116;2023-08-17T05:13:48;9.33;;;4.83;;
33327;SDS011;19692;52.998;9.116;2023-08-17T05:16:14;7.93;;;3.67;;
33327;SDS011;19692;52.998;9.116;2023-08-17T05:18:40;5.67;;;3.87;;
33327;SDS011;19692;52.998;9.116;2023-08-17T05:21:06;8.67;;;3.57;;
33327;SDS011;19692;52.998;9.116;2023-08-17T05:23:32;6.73;;;3.70;;
33327;SDS011;19692;52.998;9.116;2023-08-17T05:25:57;7.53;;;3.97;;
33327;SDS011;19692;52.998;9.116;2023-08-17T05:28:23;10.53;;;4.50;;
33327;SDS011;19692;52.998;9.116;2023-08-17T05:30:49;6.63;;;4.30;;
33327;SDS011;19692;52.998;9.116;2023-08-17T05:33:15;5.80;;;4.20;;
33327;SDS011;19692;52.998;9.116;2023-08-17T05:35:41;21.03;;;15.87;;
33327;SDS011;19692;52.998;9.116;2023-08-17T05:38:07;9.50;;;5.77;;
33327;SDS011;19692;52.998;9.116;2023-08-17T05:40:34;8.37;;;6.40;;
33327;SDS011;19692;52.998;9.116;2023-08-17T05:43:01;8.03;;;4.70;;
33327;SDS011;19692;52.998;9.116;2023-08-17T05:45:26;9.03;;;5.23;;
33327;SDS011;19692;52.998;9.116;2023-08-17T05:47:52;5.87;;;4.30;;
33327;SDS011;19692;52.998;9.116;2023-08-17T05:50:18;6.23;;;3.97;;
33327;SDS011;19692;52.998;9.116;2023-08-17T05:52:44;7.90;;;4.57;;
33327;SDS011;19692;52.998;9.116;2023-08-17T05:55:10;6.30;;;4.50;;
33327;SDS011;19692;52.998;9.116;2023-08-17T05:57:36;7.07;;;4.40;;
33327;SDS011;19692;52.998;9.116;2023-08-17T06:00:01;8.63;;;4.47;;
33327;SDS011;19692;52.998;9.116;2023-08-17T06:02:28;10.53;;;4.03;;
33327;SDS011;19692;52.998;9.116;2023-08-17T06:04:53;6.67;;;4.70;;
33327;SDS011;19692;52.998;9.116;2023-08-17T06:07:19;6.17;;;4.20;;
33327;SDS011;19692;52.998;9.116;2023-08-17T06:09:45;6.40;;;4.30;;
33327;SDS011;19692;52.998;9.116;2023-08-17T06:12:10;9.27;;;4.50;;
33327;SDS011;19692;52.998;9.116;2023-08-17T06:14:36;8.07;;;4.73;;
33327;SDS011;19692;52.998;9.116;2023-08-17T06:17:02;6.57;;;4.13;;
33327;SDS011;19692;52.998;9.116;2023-08-17T06:19:28;7.10;;;4.10;;
33327;SDS011;19692;52.998;9.116;2023-08-17T06:21:54;6.90;;;4.43;;
33327;SDS011;19692;52.998;9.116;2023-08-17T06:24:19;7.07;;;4.53;;
33327;SDS011;19692;52.998;9.116;2023-08-17T06:26:45;5.77;;;4.30;;
33327;SDS011;19692;52.998;9.116;2023-08-17T06:29:11;7.17;;;4.33;;
33327;SDS011;19692;52.998;9.116;2023-08-17T06:31:37;4.83;;;3.77;;
33327;SDS011;19692;52.998;9.116;2023-08-17T06:34:03;6.30;;;4.40;;
33327;SDS011;19692;52.998;9.116;2023-08-17T06:36:30;4.70;;;4.30;;
33327;SDS011;19692;52.998;9.116;2023-08-17T06:38:57;4.77;;;4.00;;
33327;SDS011;19692;52.998;9.116;2023-08-17T06:41:23;7.30;;;4.90;;
33327;SDS011;19692;52.998;9.116;2023-08-17T06:43:50;6.10;;;4.80;;
33327;SDS011;19692;52.998;9.116;2023-08-17T06:46:16;6.93;;;4.37;;
33327;SDS011;19692;52.998;9.116;2023-08-17T06:48:42;8.13;;;4.67;;
33327;SDS011;19692;52.998;9.116;2023-08-17T06:51:08;6.53;;;4.60;;
33327;SDS011;19692;52.998;9.116;2023-08-17T06:53:34;6.50;;;4.20;;
33327;SDS011;19692;52.998;9.116;2023-08-17T06:56:00;6.70;;;4.10;;
33327;SDS011;19692;52.998;9.116;2023-08-17T06:58:26;7.23;;;4.37;;
33327;SDS011;19692;52.998;9.116;2023-08-17T07:00:52;7.03;;;4.30;;
33327;SDS011;19692;52.998;9.116;2023-08-17T07:03:17;6.93;;;4.20;;
33327;SDS011;19692;52.998;9.116;2023-08-17T07:05:43;8.07;;;3.97;;
33327;SDS011;19692;52.998;9.116;2023-08-17T07:08:09;6.67;;;4.23;;
33327;SDS011;19692;52.998;9.116;2023-08-17T07:10:35;6.53;;;4.00;;
33327;SDS011;19692;52.998;9.116;2023-08-17T07:13:01;7.67;;;4.47;;
33327;SDS011;19692;52.998;9.116;2023-08-17T07:15:28;7.80;;;4.40;;
33327;SDS011;19692;52.998;9.116;2023-08-17T07:17:57;6.53;;;3.80;;
33327;SDS011;19692;52.998;9.116;2023-08-17T07:20:23;5.50;;;3.57;;
33327;SDS011;19692;52.998;9.116;2023-08-17T07:22:49;5.73;;;4.20;;
33327;SDS011;19692;52.998;9.116;2023-08-17T07:25:15;5.73;;;3.87;;
33327;SDS011;19692;52.998;9.116;2023-08-17T07:27:41;5.27;;;4.67;;
33327;SDS011;19692;52.998;9.116;2023-08-17T07:30:07;6.20;;;3.73;;
33327;SDS011;19692;52.998;9.116;2023-08-17T07:32:34;5.77;;;4.10;;
33327;SDS011;19692;52.998;9.116;2023-08-17T07:35:02;6.57;;;4.17;;
33327;SDS011;19692;52.998;9.116;2023-08-17T07:37:28;6.20;;;4.23;;
33327;SDS011;19692;52.998;9.116;2023-08-17T07:39:58;6.87;;;4.17;;
33327;SDS011;19692;52.998;9.116;2023-08-17T07:42:24;4.93;;;4.00;;
33327;SDS011;19692;52.998;9.116;2023-08-17T07:44:50;5.13;;;3.47;;
33327;SDS011;19692;52.998;9.116;2023-08-17T07:47:15;6.03;;;4.07;;
33327;SDS011;19692;52.998;9.116;2023-08-17T07:49:41;7.37;;;4.27;;
33327;SDS011;19692;52.998;9.116;2023-08-17T07:52:07;5.67;;;3.93;;
33327;SDS011;19692;52.998;9.116;2023-08-17T07:54:33;4.43;;;3.87;;
33327;SDS011;19692;52.998;9.116;2023-08-17T07:56:58;6.73;;;3.93;;
33327;SDS011;19692;52.998;9.116;2023-08-17T07:59:24;4.23;;;3.80;;
33327;SDS011;19692;52.998;9.116;2023-08-17T08:01:50;4.93;;;3.60;;
33327;SDS011;19692;52.998;9.116;2023-08-17T08:04:16;5.10;;;3.70;;
33327;SDS011;19692;52.998;9.116;2023-08-17T08:06:42;5.20;;;3.67;;
33327;SDS011;19692;52.998;9.116;2023-08-17T08:09:11;4.57;;;3.30;;
33327;SDS011;19692;52.998;9.116;2023-08-17T08:11:37;6.80;;;3.50;;
33327;SDS011;19692;52.998;9.116;2023-08-17T08:14:03;4.93;;;4.43;;
33327;SDS011;19692;52.998;9.116;2023-08-17T08:16:29;4.47;;;3.70;;
33327;SDS011;19692;52.998;9.116;2023-08-17T08:18:55;5.67;;;3.93;;
33327;SDS011;19692;52.998;9.116;2023-08-17T08:21:21;5.90;;;3.70;;
33327;SDS011;19692;52.998;9.116;2023-08-17T08:23:47;5.17;;;3.93;;
33327;SDS011;19692;52.998;9.116;2023-08-17T08:26:13;4.50;;;4.10;;
33327;SDS011;19692;52.998;9.116;2023-08-17T08:28:39;5.93;;;4.20;;
33327;SDS011;19692;52.998;9.116;2023-08-17T08:31:05;5.53;;;4.13;;
33327;SDS011;19692;52.998;9.116;2023-08-17T08:33:30;4.27;;;3.87;;
33327;SDS011;19692;52.998;9.116;2023-08-17T08:35:56;4.37;;;3.97;;
33327;SDS011;19692;52.998;9.116;2023-08-17T08:38:22;4.67;;;4.17;;
33327;SDS011;19692;52.998;9.116;2023-08-17T08:40:49;4.60;;;3.77;;
33327;SDS011;19692;52.998;9.116;2023-08-17T08:43:15;4.27;;;3.83;;
33327;SDS011;19692;52.998;9.116;2023-08-17T08:45:41;4.93;;;3.67;;
33327;SDS011;19692;52.998;9.116;2023-08-17T08:48:09;4.93;;;3.57;;
33327;SDS011;19692;52.998;9.116;2023-08-17T08:50:36;4.57;;;3.57;;
33327;SDS011;19692;52.998;9.116;2023-08-17T08:53:07;3.73;;;3.43;;
33327;SDS011;19692;52.998;9.116;2023-08-17T08:55:40;6.10;;;4.13;;
33327;SDS011;19692;52.998;9.116;2023-08-17T08:58:15;4.10;;;3.70;;
33327;SDS011;19692;52.998;9.116;2023-08-17T09:00:41;4.97;;;4.47;;
33327;SDS011;19692;52.998;9.116;2023-08-17T09:03:11;3.73;;;3.43;;
33327;SDS011;19692;52.998;9.116;2023-08-17T09:05:37;4.80;;;3.30;;
33327;SDS011;19692;52.998;9.116;2023-08-17T09:08:08;5.23;;;3.67;;
33327;SDS011;19692;52.998;9.116;2023-08-17T09:10:35;5.80;;;3.60;;
33327;SDS011;19692;52.998;9.116;2023-08-17T09:13:00;4.20;;;3.73;;
33327;SDS011;19692;52.998;9.116;2023-08-17T09:15:26;4.20;;;3.83;;
33327;SDS011;19692;52.998;9.116;2023-08-17T09:17:52;3.40;;;3.10;;
33327;SDS011;19692;52.998;9.116;2023-08-17T09:23:04;5.50;;;3.20;;
33327;SDS011;19692;52.998;9.116;2023-08-17T09:25:36;3.67;;;3.37;;
33327;SDS011;19692;52.998;9.116;2023-08-17T09:28:08;4.33;;;3.43;;
33327;SDS011;19692;52.998;9.116;2023-08-17T09:30:48;3.77;;;3.43;;
33327;SDS011;19692;52.998;9.116;2023-08-17T09:33:26;4.27;;;3.20;;
33327;SDS011;19692;52.998;9.116;2023-08-17T09:35:55;4.50;;;4.17;;
33327;SDS011;19692;52.998;9.116;2023-08-17T09:38:22;3.80;;;3.40;;
33327;SDS011;19692;52.998;9.116;2023-08-17T09:40:48;4.10;;;3.63;;
33327;SDS011;19692;52.998;9.116;2023-08-17T09:43:15;3.70;;;3.40;;
33327;SDS011;19692;52.998;9.116;2023-08-17T09:45:43;4.20;;;2.90;;
33327;SDS011;19692;52.998;9.116;2023-08-17T09:48:13;4.53;;;2.97;;
33327;SDS011;19692;52.998;9.116;2023-08-17T09:50:45;3.20;;;2.90;;
33327;SDS011;19692;52.998;9.116;2023-08-17T09:53:18;2.97;;;2.77;;
33327;SDS011;19692;52.998;9.116;2023-08-17T09:55:44;3.57;;;2.80;;
33327;SDS011;19692;52.998;9.116;2023-08-17T09:58:11;4.30;;;4.00;;
33327;SDS011;19692;52.998;9.116;2023-08-17T10:00:45;3.30;;;3.00;;
33327;SDS011;19692;52.998;9.116;2023-08-17T10:03:14;3.70;;;2.97;;
33327;SDS011;19692;52.998;9.116;2023-08-17T10:05:42;2.97;;;2.70;;
33327;SDS011;19692;52.998;9.116;2023-08-17T10:08:12;3.50;;;2.90;;
33327;SDS011;19692;52.998;9.116;2023-08-17T10:10:44;3.40;;;2.90;;
33327;SDS011;19692;52.998;9.116;2023-08-17T10:16:19;3.30;;;3.00;;
33327;SDS011;19692;52.998;9.116;2023-08-17T10:21:55;3.30;;;3.00;;
33327;SDS011;19692;52.998;9.116;2023-08-17T10:24:31;4.00;;;2.90;;
33327;SDS011;19692;52.998;9.116;2023-08-17T10:27:00;2.83;;;2.60;;
33327;SDS011;19692;52.998;9.116;2023-08-17T10:29:28;3.57;;;3.00;;
33327;SDS011;19692;52.998;9.116;2023-08-17T10:31:55;3.00;;;2.80;;
33327;SDS011;19692;52.998;9.116;2023-08-17T10:34:22;3.97;;;3.53;;
33327;SDS011;19692;52.998;9.116;2023-08-17T10:36:48;4.33;;;2.60;;
33327;SDS011;19692;52.998;9.116;2023-08-17T10:39:21;3.70;;;3.17;;
33327;SDS011;19692;52.998;9.116;2023-08-17T10:41:49;4.10;;;2.73;;
33327;SDS011;19692;52.998;9.116;2023-08-17T10:50:05;2.77;;;2.60;;
33327;SDS011;19692;52.998;9.116;2023-08-17T10:52:47;2.90;;;2.70;;
33327;SDS011;19692;52.998;9.116;2023-08-17T10:55:14;4.03;;;3.80;;
33327;SDS011;19692;52.998;9.116;2023-08-17T10:57:41;2.90;;;2.70;;
33327;SDS011;19692;52.998;9.116;2023-08-17T11:00:20;3.07;;;2.80;;
33327;SDS011;19692;52.998;9.116;2023-08-17T11:02:52;2.30;;;2.20;;
33327;SDS011;19692;52.998;9.116;2023-08-17T11:08:21;3.60;;;2.70;;
33327;SDS011;19692;52.998;9.116;2023-08-17T11:13:29;2.80;;;2.60;;
33327;SDS011;19692;52.998;9.116;2023-08-17T11:16:01;3.27;;;2.97;;
33327;SDS011;19692;52.998;9.116;2023-08-17T11:18:28;2.70;;;2.50;;
33327;SDS011;19692;52.998;9.116;2023-08-17T11:20:56;3.13;;;2.93;;
33327;SDS011;19692;52.998;9.116;2023-08-17T11:23:28;2.73;;;2.53;;
33327;SDS011;19692;52.998;9.116;2023-08-17T11:25:55;3.73;;;2.77;;
33327;SDS011;19692;52.998;9.116;2023-08-17T11:28:21;2.63;;;2.43;;
33327;SDS011;19692;52.998;9.116;2023-08-17T11:30:58;2.53;;;2.33;;
33327;SDS011;19692;52.998;9.116;2023-08-17T11:33:26;3.00;;;2.80;;
33327;SDS011;19692;52.998;9.116;2023-08-17T11:35:56;2.87;;;2.67;;
33327;SDS011;19692;52.998;9.116;2023-08-17T11:38:24;2.87;;;2.60;;
33327;SDS011;19692;52.998;9.116;2023-08-17T11:40:51;2.83;;;2.63;;
33327;SDS011;19692;52.998;9.116;2023-08-17T11:43:17;3.70;;;3.20;;
33327;SDS011;19692;52.998;9.116;2023-08-17T11:45:45;3.00;;;2.70;;
33327;SDS011;19692;52.998;9.116;2023-08-17T11:48:11;3.30;;;2.97;;
33327;SDS011;19692;52.998;9.116;2023-08-17T11:50:38;3.67;;;3.47;;
33327;SDS011;19692;52.998;9.116;2023-08-17T11:53:04;2.93;;;2.73;;
33327;SDS011;19692;52.998;9.116;2023-08-17T11:55:31;3.10;;;2.90;;
33327;SDS011;19692;52.998;9.116;2023-08-17T11:57:57;2.90;;;2.67;;
33327;SDS011;19692;52.998;9.116;2023-08-17T12:00:23;2.60;;;2.40;;
33327;SDS011;19692;52.998;9.116;2023-08-17T12:02:51;3.27;;;2.50;;
33327;SDS011;19692;52.998;9.116;2023-08-17T12:05:24;2.67;;;2.47;;
33327;SDS011;19692;52.998;9.116;2023-08-17T12:07:52;2.70;;;2.50;;
33327;SDS011;19692;52.998;9.116;2023-08-17T12:10:19;2.43;;;2.23;;
33327;SDS011;19692;52.998;9.116;2023-08-17T12:12:48;2.40;;;2.20;;
33327;SDS011;19692;52.998;9.116;2023-08-17T12:15:15;2.40;;;2.20;;
33327;SDS011;19692;52.998;9.116;2023-08-17T12:17:48;2.47;;;2.27;;
33327;SDS011;19692;52.998;9.116;2023-08-17T12:20:18;2.53;;;2.33;;
33327;SDS011;19692;52.998;9.116;2023-08-17T12:22:48;2.70;;;2.50;;
33327;SDS011;19692;52.998;9.116;2023-08-17T12:25:14;2.30;;;2.20;;
33327;SDS011;19692;52.998;9.116;2023-08-17T12:27:40;2.60;;;2.40;;
33327;SDS011;19692;52.998;9.116;2023-08-17T12:30:28;2.47;;;2.27;;
33327;SDS011;19692;52.998;9.116;2023-08-17T12:32:56;2.57;;;2.40;;
33327;SDS011;19692;52.998;9.116;2023-08-17T12:35:22;2.57;;;2.37;;
33327;SDS011;19692;52.998;9.116;2023-08-17T12:37:49;3.80;;;2.40;;
33327;SDS011;19692;52.998;9.116;2023-08-17T12:40:16;2.53;;;2.33;;
33327;SDS011;19692;52.998;9.116;2023-08-17T12:42:42;2.17;;;1.97;;
33327;SDS011;19692;52.998;9.116;2023-08-17T12:45:08;2.40;;;2.20;;
33327;SDS011;19692;52.998;9.116;2023-08-17T12:47:34;2.27;;;2.10;;
33327;SDS011;19692;52.998;9.116;2023-08-17T12:50:00;2.40;;;2.20;;
33327;SDS011;19692;52.998;9.116;2023-08-17T12:52:27;3.63;;;3.33;;
33327;SDS011;19692;52.998;9.116;2023-08-17T12:54:53;2.47;;;2.27;;
33327;SDS011;19692;52.998;9.116;2023-08-17T12:57:19;3.23;;;2.97;;
33327;SDS011;19692;52.998;9.116;2023-08-17T12:59:45;2.27;;;2.07;;
33327;SDS011;19692;52.998;9.116;2023-08-17T13:02:13;2.87;;;2.50;;
33327;SDS011;19692;52.998;9.116;2023-08-17T13:04:40;2.43;;;2.23;;
33327;SDS011;19692;52.998;9.116;2023-08-17T13:07:06;2.80;;;2.60;;
33327;SDS011;19692;52.998;9.116;2023-08-17T13:09:32;2.80;;;2.37;;
33327;SDS011;19692;52.998;9.116;2023-08-17T13:11:58;2.53;;;2.33;;
33327;SDS011;19692;52.998;9.116;2023-08-17T13:14:24;2.83;;;2.03;;
33327;SDS011;19692;52.998;9.116;2023-08-17T13:16:50;2.57;;;2.37;;
33327;SDS011;19692;52.998;9.116;2023-08-17T13:19:17;2.33;;;2.13;;
33327;SDS011;19692;52.998;9.116;2023-08-17T13:21:43;2.33;;;2.13;;
33327;SDS011;19692;52.998;9.116;2023-08-17T13:24:10;2.23;;;2.03;;
33327;SDS011;19692;52.998;9.116;2023-08-17T13:26:36;2.73;;;2.30;;
33327;SDS011;19692;52.998;9.116;2023-08-17T13:29:05;2.37;;;2.10;;
33327;SDS011;19692;52.998;9.116;2023-08-17T13:31:40;2.27;;;2.10;;
33327;SDS011;19692;52.998;9.116;2023-08-17T13:34:05;2.37;;;2.27;;
33327;SDS011;19692;52.998;9.116;2023-08-17T13:36:31;2.57;;;2.37;;
33327;SDS011;19692;52.998;9.116;2023-08-17T13:38:57;2.70;;;2.03;;
33327;SDS011;19692;52.998;9.116;2023-08-17T13:41:23;2.83;;;2.63;;
33327;SDS011;19692;52.998;9.116;2023-08-17T13:43:50;2.60;;;2.40;;
33327;SDS011;19692;52.998;9.116;2023-08-17T13:46:15;2.43;;;2.23;;
33327;SDS011;19692;52.998;9.116;2023-08-17T13:48:41;3.30;;;3.07;;
33327;SDS011;19692;52.998;9.116;2023-08-17T13:51:07;2.40;;;2.30;;
33327;SDS011;19692;52.998;9.116;2023-08-17T13:53:33;2.73;;;2.40;;
33327;SDS011;19692;52.998;9.116;2023-08-17T13:56:01;3.70;;;3.40;;
33327;SDS011;19692;52.998;9.116;2023-08-17T13:58:27;3.87;;;2.90;;
33327;SDS011;19692;52.998;9.116;2023-08-17T14:00:53;2.80;;;2.60;;
33327;SDS011;19692;52.998;9.116;2023-08-17T14:03:18;2.53;;;2.33;;
33327;SDS011;19692;52.998;9.116;2023-08-17T14:05:44;3.07;;;2.87;;
33327;SDS011;19692;52.998;9.116;2023-08-17T14:08:10;2.73;;;2.53;;
33327;SDS011;19692;52.998;9.116;2023-08-17T14:10:36;2.53;;;2.33;;
33327;SDS011;19692;52.998;9.116;2023-08-17T14:13:02;3.00;;;2.80;;
33327;SDS011;19692;52.998;9.116;2023-08-17T14:15:29;3.33;;;2.90;;
33327;SDS011;19692;52.998;9.116;2023-08-17T14:17:55;3.07;;;2.80;;
33327;SDS011;19692;52.998;9.116;2023-08-17T14:20:20;3.13;;;2.50;;
33327;SDS011;19692;52.998;9.116;2023-08-17T14:22:46;2.50;;;2.30;;
33327;SDS011;19692;52.998;9.116;2023-08-17T14:25:12;2.83;;;2.63;;
33327;SDS011;19692;52.998;9.116;2023-08-17T14:27:38;4.43;;;2.93;;
33327;SDS011;19692;52.998;9.116;2023-08-17T14:30:04;3.93;;;2.80;;
33327;SDS011;19692;52.998;9.116;2023-08-17T14:32:31;2.70;;;2.50;;
33327;SDS011;19692;52.998;9.116;2023-08-17T14:34:57;2.87;;;2.67;;
33327;SDS011;19692;52.998;9.116;2023-08-17T14:37:22;2.73;;;2.53;;
33327;SDS011;19692;52.998;9.116;2023-08-17T14:39:48;4.43;;;3.10;;
33327;SDS011;19692;52.998;9.116;2023-08-17T14:42:17;3.00;;;2.70;;
33327;SDS011;19692;52.998;9.116;2023-08-17T14:44:42;4.23;;;2.90;;
33327;SDS011;19692;52.998;9.116;2023-08-17T14:47:18;3.10;;;2.80;;
33327;SDS011;19692;52.998;9.116;2023-08-17T14:49:44;2.90;;;2.70;;
33327;SDS011;19692;52.998;9.116;2023-08-17T14:52:16;3.23;;;2.70;;
33327;SDS011;19692;52.998;9.116;2023-08-17T14:54:41;2.73;;;2.50;;
33327;SDS011;19692;52.998;9.116;2023-08-17T14:57:07;3.13;;;2.53;;
33327;SDS011;19692;52.998;9.116;2023-08-17T14:59:33;2.80;;;2.60;;
33327;SDS011;19692;52.998;9.116;2023-08-17T15:01:59;2.67;;;2.47;;
33327;SDS011;19692;52.998;9.116;2023-08-17T15:04:24;3.10;;;2.90;;
33327;SDS011;19692;52.998;9.116;2023-08-17T15:06:51;3.67;;;2.87;;
33327;SDS011;19692;52.998;9.116;2023-08-17T15:09:17;3.17;;;2.87;;